Terminal Aerodrome Forecast
Issued by NWS

Home | Current Version | Previous Version | Text Only | Print | Product List | Glossary On
Versions: 1 2 3 4 5 6 7 8 9 10 11 12 13 14 15 16 17 18 19 20
474
FTUS41 KALY 302330
TAFPSF
TAF
KPSF 302330Z 3100/3124 VRB03KT P6SM VCSH SCT050 OVC100
     FM310800 00000KT 4SM -RA BR SCT012 OVC020
     FM311300 08002KT 1 1/2SM -RA BR OVC007
     FM311700 10004KT 2SM -RA BR OVC015=

USA.gov is the U.S. government's official web portal to all federal, state and local government web resources and services.